createdAt,value
2016-11-12T00:00:19.096Z,75.04
2016-11-12T00:01:19.099Z,75.91
2016-11-12T00:02:19.161Z,75.81
2016-11-12T00:03:19.208Z,73.78
2016-11-12T00:04:19.260Z,74.94
2016-11-12T00:05:19.301Z,75.23
2016-11-12T00:06:19.354Z,77.03
2016-11-12T00:07:19.410Z,76.64
2016-11-12T00:08:19.462Z,75.29
2016-11-12T00:09:19.519Z,74.04
2016-11-12T00:10:19.572Z,75
2016-11-12T00:11:20.209Z,76.16
2016-11-12T00:12:20.217Z,76.55
2016-11-12T00:13:19.752Z,75.68
2016-11-12T00:14:19.798Z,75.87
2016-11-12T00:15:19.832Z,76.26
2016-11-12T00:16:19.909Z,75.97
2016-11-12T00:17:19.950Z,75.78
2016-11-12T00:18:19.988Z,75.1
2016-11-12T00:19:20.148Z,76.55
2016-11-12T00:20:20.099Z,77.48
2016-11-12T00:21:20.156Z,76.16
2016-11-12T00:22:20.209Z,75.97
2016-11-12T00:23:20.272Z,74.42
2016-11-12T00:24:20.399Z,76.06
2016-11-12T00:25:20.342Z,75.74
2016-11-12T00:26:20.384Z,74.87
2016-11-12T00:27:20.453Z,73.61
2016-11-12T00:28:20.526Z,73.32
2016-11-12T00:29:20.563Z,73.28
2016-11-12T00:30:20.622Z,75.02
2016-11-12T00:31:20.676Z,75.31
2016-11-12T00:32:20.731Z,74.93
2016-11-12T00:33:20.774Z,73.38
2016-11-12T00:34:20.805Z,73.71
2016-11-12T00:35:20.871Z,73.22
2016-11-12T00:36:20.916Z,73.42
2016-11-12T00:37:20.986Z,73.58
2016-11-12T00:38:21.019Z,73.42
2016-11-12T00:39:21.056Z,73
2016-11-12T00:40:21.674Z,73.9
2016-11-12T00:41:21.168Z,73.13
2016-11-12T00:42:21.287Z,73.03
2016-11-12T00:43:21.288Z,73.52
2016-11-12T00:44:21.350Z,72.74
2016-11-12T00:45:21.395Z,72.55
2016-11-12T00:46:21.437Z,73.22
2016-11-12T00:47:21.496Z,73.28
2016-11-12T00:48:21.531Z,74.79
2016-11-12T00:49:21.628Z,75.67
2016-11-12T00:50:21.776Z,74.83
2016-11-12T00:51:21.668Z,74.89
2016-11-12T00:52:21.747Z,74.51
2016-11-12T00:53:21.782Z,74.73
2016-11-12T00:54:21.853Z,73.58
2016-11-12T00:55:22.015Z,73.77
2016-11-12T00:56:21.995Z,73.96
2016-11-12T00:57:22.032Z,73.38
2016-11-12T00:58:22.051Z,73.48
2016-11-12T00:59:22.119Z,73.28
2016-11-12T01:00:22.156Z,74.25
2016-11-12T01:01:22.233Z,73.19
2016-11-12T01:02:22.244Z,73.38
2016-11-12T01:03:22.312Z,73.48
2016-11-12T01:04:22.369Z,73.38
2016-11-12T01:05:22.415Z,73.96
2016-11-12T01:06:22.452Z,74.51
2016-11-12T01:07:22.489Z,73.93
2016-11-12T01:08:22.571Z,73.93
2016-11-12T01:09:22.613Z,74.51
2016-11-12T01:10:22.677Z,74.25
2016-11-12T01:11:23.218Z,74.64
2016-11-12T01:12:22.752Z,74.12
2016-11-12T01:13:22.812Z,74.93
2016-11-12T01:14:22.870Z,74.64
2016-11-12T01:15:22.920Z,75.57
2016-11-12T01:16:22.983Z,76.3
2016-11-12T01:17:23.024Z,76.5
2016-11-12T01:18:23.070Z,77.11
2016-11-12T01:19:23.150Z,76.82
2016-11-12T01:20:23.190Z,75.57
2016-11-12T01:21:23.212Z,74.6
2016-11-12T01:22:23.280Z,75.09
2016-11-12T01:23:23.311Z,75.79
2016-11-12T01:24:23.428Z,75.02
2016-11-12T01:25:23.446Z,74.44
2016-11-12T01:26:23.564Z,74.93
2016-11-12T01:27:23.543Z,73.77
2016-11-12T01:28:23.591Z,73.28
2016-11-12T01:29:23.624Z,73.38
2016-11-12T01:30:23.675Z,73.42
2016-11-12T01:31:23.868Z,73.13
2016-11-12T01:32:23.799Z,73.32
2016-11-12T01:33:23.842Z,73.32
2016-11-12T01:34:23.893Z,73.52
2016-11-12T01:35:23.929Z,73.13
2016-11-12T01:36:24.129Z,73.52
2016-11-12T01:37:24.053Z,73.42
2016-11-12T01:38:24.094Z,73.52
2016-11-12T01:39:24.149Z,72.55
2016-11-12T01:40:24.229Z,73.42
2016-11-12T01:41:24.259Z,73.48
2016-11-12T01:42:24.316Z,73.8
2016-11-12T01:43:24.377Z,73.8
2016-11-12T01:44:24.397Z,73.9
2016-11-12T01:45:24.470Z,72.06
2016-11-12T01:46:24.548Z,72.55
2016-11-12T01:47:24.564Z,73.42
2016-11-12T01:48:24.627Z,73.58
2016-11-12T01:49:24.649Z,73.38
2016-11-12T01:50:24.763Z,73.77
2016-11-12T01:51:24.774Z,74.64
2016-11-12T01:52:24.816Z,74.93
2016-11-12T01:53:24.888Z,75.02
2016-11-12T01:54:24.949Z,74.64
2016-11-12T01:55:24.994Z,74.73
2016-11-12T01:56:25.040Z,74.54
2016-11-12T01:57:25.069Z,75.51
2016-11-12T01:58:25.134Z,75.89
2016-11-12T01:59:25.207Z,75.79
2016-11-12T02:00:25.242Z,76.86
2016-11-12T02:01:25.299Z,77.01
2016-11-12T02:02:25.438Z,75.89
2016-11-12T02:03:25.383Z,76.57
2016-11-12T02:04:25.440Z,75.89
2016-11-12T02:05:25.519Z,75.89
2016-11-12T02:06:25.562Z,75.79
2016-11-12T02:07:25.687Z,75.7
2016-11-12T02:08:25.645Z,75.35
2016-11-12T02:09:25.699Z,74.77
2016-11-12T02:10:25.765Z,74.96
2016-11-12T02:11:25.812Z,75.26
2016-11-12T02:12:25.843Z,75.35
2016-11-12T02:13:25.910Z,75.26
2016-11-12T02:14:25.949Z,74.96
2016-11-12T02:15:26.027Z,75.45
2016-11-12T02:16:26.053Z,75.26
2016-11-12T02:17:26.127Z,75.41
2016-11-12T02:18:26.151Z,75.89
2016-11-12T02:19:26.216Z,76.28
2016-11-12T02:20:26.271Z,76.67
2016-11-12T02:21:26.300Z,76.18
2016-11-12T02:22:26.371Z,76.09
2016-11-12T02:23:26.430Z,76.18
2016-11-12T02:24:26.448Z,76.47
2016-11-12T02:25:26.549Z,76.09
2016-11-12T02:26:26.579Z,76.47
2016-11-12T02:27:26.618Z,76.47
2016-11-12T02:28:26.683Z,75.79
2016-11-12T02:29:26.722Z,75.02
2016-11-12T02:30:26.800Z,74.96
2016-11-12T02:31:26.836Z,74.93
2016-11-12T02:32:26.896Z,74.93
2016-11-12T02:33:27.038Z,75.26
2016-11-12T02:34:27.015Z,74.96
2016-11-12T02:35:27.028Z,75.26
2016-11-12T02:36:27.095Z,75.64
2016-11-12T02:37:27.155Z,75.74
2016-11-12T02:38:27.298Z,75.84
2016-11-12T02:39:27.238Z,75.35
2016-11-12T02:40:27.300Z,76.42
2016-11-12T02:41:27.370Z,75.64
2016-11-12T02:42:27.399Z,74.96
2016-11-12T02:43:27.565Z,75.74
2016-11-12T02:44:27.536Z,75.45
2016-11-12T02:45:27.560Z,74.48
2016-11-12T02:46:27.626Z,75.26
2016-11-12T02:47:27.659Z,74.68
2016-11-12T02:48:27.703Z,74.87
2016-11-12T02:49:27.762Z,75.06
2016-11-12T02:50:27.809Z,74.87
2016-11-12T02:51:27.868Z,74.77
2016-11-12T02:52:27.906Z,74.96
2016-11-12T02:53:27.957Z,74.68
2016-11-12T02:54:28.065Z,74.96
2016-11-12T02:55:28.087Z,75.06
2016-11-12T02:56:28.651Z,74.96
2016-11-12T02:57:28.219Z,74.87
2016-11-12T02:58:28.213Z,74.71
2016-11-12T02:59:28.300Z,75.45
2016-11-12T03:00:28.327Z,75.45
2016-11-12T03:01:28.382Z,75.26
2016-11-12T03:02:28.441Z,75.64
2016-11-12T03:03:28.473Z,75.64
2016-11-12T03:04:28.548Z,75.06
2016-11-12T03:05:28.573Z,75.84
2016-11-12T03:06:28.627Z,76.03
2016-11-12T03:07:28.702Z,76.32
2016-11-12T03:08:28.750Z,76.32
2016-11-12T03:09:28.909Z,76.76
2016-11-12T03:10:28.852Z,76.42
2016-11-12T03:11:28.896Z,76.28
2016-11-12T03:12:28.956Z,76.12
2016-11-12T03:13:29.028Z,76.22
2016-11-12T03:14:29.164Z,76.61
2016-11-12T03:15:29.119Z,76.42
2016-11-12T03:16:29.167Z,76.47
2016-11-12T03:17:29.205Z,76.42
2016-11-12T03:18:29.300Z,76.9
2016-11-12T03:19:29.412Z,76.03
2016-11-12T03:20:29.375Z,76.51
2016-11-12T03:21:29.453Z,76.51
2016-11-12T03:22:29.459Z,76.61
2016-11-12T03:23:29.548Z,76.22
2016-11-12T03:24:29.612Z,75.84
2016-11-12T03:25:29.610Z,76.12
2016-11-12T03:26:29.703Z,76.12
2016-11-12T03:27:29.719Z,75.84
2016-11-12T03:28:29.778Z,76.22
2016-11-12T03:29:29.825Z,76.51
2016-11-12T03:30:29.914Z,76.12
2016-11-12T03:31:29.939Z,77.09
2016-11-12T03:32:29.998Z,76.7
2016-11-12T03:33:30.056Z,76.9
2016-11-12T03:34:30.113Z,76.76
2016-11-12T03:35:30.133Z,77.34
2016-11-12T03:36:30.202Z,77.73
2016-11-12T03:37:30.282Z,77.63
2016-11-12T03:38:30.276Z,77.86
2016-11-12T03:39:30.389Z,78.5
2016-11-12T03:40:30.521Z,78.5
2016-11-12T03:41:30.476Z,78.41
2016-11-12T03:42:30.518Z,77.83
2016-11-12T03:43:30.559Z,77.73
2016-11-12T03:44:30.630Z,77.53
2016-11-12T08:06:35.488Z,83.74
2016-11-12T08:07:35.535Z,83.7
2016-11-12T08:08:35.591Z,83.84
2016-11-12T08:09:35.640Z,83.16
2016-11-12T08:10:36.224Z,83.84
2016-11-12T08:11:35.972Z,83.74
2016-11-12T08:12:35.806Z,83.94
2016-11-12T08:13:35.843Z,83.36
2016-11-12T08:14:35.891Z,83.16
2016-11-12T08:15:36.450Z,83.26
2016-11-12T08:16:36.068Z,82.97
2016-11-12T08:17:36.042Z,83.36
2016-11-12T08:18:36.108Z,83.45
2016-11-12T08:19:36.134Z,82.87
2016-11-12T08:20:36.197Z,83.07
2016-11-12T08:21:36.356Z,83.64
2016-11-12T08:22:36.304Z,83.64
2016-11-12T08:23:36.336Z,83.16
2016-11-12T08:24:36.390Z,82.78
2016-11-12T08:25:36.442Z,83.64
2016-11-12T08:26:36.499Z,83.45
2016-11-12T08:27:36.535Z,83.55
2016-11-12T08:28:36.587Z,83.84
2016-11-12T08:29:36.642Z,83.64
2016-11-12T08:30:36.705Z,83.84
2016-11-12T08:31:36.764Z,84.18
2016-11-12T08:32:37.361Z,84.38
2016-11-12T08:33:36.874Z,84.42
2016-11-12T08:34:36.883Z,84.09
2016-11-12T08:35:36.983Z,84.42
2016-11-12T08:36:37.036Z,84.52
2016-11-12T08:37:37.055Z,84.28
2016-11-12T08:38:37.095Z,84.76
2016-11-12T08:39:37.176Z,85.63
2016-11-12T08:40:37.765Z,85.09
2016-11-12T08:41:37.287Z,85.38
2016-11-12T08:42:37.504Z,85.09
2016-11-12T08:43:37.351Z,84.7
2016-11-12T08:44:37.429Z,85.53
2016-11-12T08:45:37.474Z,85.63
2016-11-12T08:46:37.539Z,86.25
2016-11-12T08:47:38.217Z,85.05
2016-11-12T08:48:37.612Z,85.72
2016-11-12T08:49:37.654Z,86.05
2016-11-12T08:50:37.692Z,85.86
2016-11-12T08:51:37.748Z,85.57
2016-11-12T08:52:37.945Z,85.77
2016-11-12T08:53:38.595Z,85.77
2016-11-12T08:54:38.143Z,85.09
2016-11-12T08:55:37.990Z,86.01
2016-11-12T08:56:38.039Z,86.4
2016-11-12T08:57:38.063Z,86.88
2016-11-12T08:58:38.116Z,86.69
2016-11-12T08:59:38.709Z,87.79
2016-11-12T09:00:38.210Z,86.82
2016-11-12T09:01:38.308Z,87.02
2016-11-12T09:02:38.360Z,86.54
2016-11-12T09:03:38.422Z,86.69
2016-11-12T09:04:38.416Z,86.59
2016-11-12T09:05:39.046Z,87.02
2016-11-12T09:06:38.519Z,86.44
2016-11-12T09:07:38.567Z,87.3
2016-11-12T09:08:38.629Z,86.92
2016-11-12T09:09:38.699Z,87.55
2016-11-12T09:10:38.734Z,87.4
2016-11-12T09:11:38.804Z,87.46
2016-11-12T09:12:38.868Z,86.82
2016-11-12T09:13:38.886Z,86.69
2016-11-12T09:14:38.942Z,87.17
2016-11-12T09:15:38.971Z,86.98
2016-11-12T09:16:39.064Z,86.98
2016-11-12T09:17:39.090Z,87.65
2016-11-12T09:18:39.340Z,88.13
2016-11-12T09:19:39.198Z,87.94
2016-11-12T09:20:39.760Z,88.32
2016-11-12T09:21:39.337Z,87.36
2016-11-12T09:22:39.332Z,87.02
2016-11-12T09:23:39.480Z,86.78
2016-11-12T09:24:39.481Z,87.4
2016-11-12T09:25:39.488Z,87.02
2016-11-12T09:26:39.545Z,86.54
2016-11-12T09:27:39.625Z,85.96
2016-11-12T09:28:39.764Z,85.63
2016-11-12T09:29:39.744Z,85.72
2016-11-12T09:30:39.744Z,86.49
2016-11-12T09:31:39.837Z,86.01
2016-11-12T09:32:39.868Z,86.11
2016-11-12T09:33:39.912Z,85.53
2016-11-12T09:34:39.936Z,85.34
2016-11-12T09:35:40.008Z,85.58
2016-11-12T09:36:40.041Z,87.03
2016-11-12T09:37:40.095Z,86.98
2016-11-12T09:38:40.147Z,87.32
2016-11-12T09:39:40.201Z,86.35
2016-11-12T09:40:40.244Z,87.6
2016-11-12T09:41:40.308Z,87.32
2016-11-12T09:42:40.357Z,86.83
2016-11-12T09:43:40.407Z,86.88
2016-11-12T09:44:41.007Z,87.12
2016-11-12T09:45:40.491Z,87.32
2016-11-12T09:46:40.590Z,87.51
2016-11-12T09:47:40.592Z,87.22
2016-11-12T09:48:40.678Z,87.51
2016-11-12T09:49:40.810Z,87.9
2016-11-12T09:50:40.766Z,87.41
2016-11-12T09:51:41.393Z,86.65
2016-11-12T09:52:40.839Z,87.32
2016-11-12T09:53:41.446Z,87.51
2016-11-12T09:54:40.961Z,87.51
2016-11-12T09:55:41.041Z,87.51
2016-11-12T09:56:41.101Z,87.12
2016-11-12T09:57:41.136Z,87.41
2016-11-12T09:58:41.212Z,88.67
2016-11-12T09:59:41.340Z,87.6
2016-11-12T10:00:41.858Z,87.9
2016-11-12T10:01:41.320Z,86.83
2016-11-12T10:02:41.412Z,87.99
2016-11-12T10:03:41.428Z,87.41
2016-11-12T10:04:41.676Z,86.74
2016-11-12T10:05:41.542Z,87.9
2016-11-12T10:06:42.115Z,88.38
2016-11-12T10:07:41.602Z,87.51
2016-11-12T10:08:41.664Z,87.03
2016-11-12T10:09:41.860Z,87.03
2016-11-12T10:10:41.763Z,86.65
2016-11-12T10:11:41.849Z,87.36
2016-11-12T10:12:41.874Z,86.65
2016-11-12T10:13:41.978Z,86.74
2016-11-12T10:14:42.496Z,87.03
2016-11-12T10:15:42.545Z,85.91
2016-11-12T10:16:42.596Z,86.59
2016-11-12T10:17:42.144Z,85.87
2016-11-12T10:18:42.177Z,86.59
2016-11-12T10:19:42.225Z,85.82
2016-11-12T10:20:42.791Z,85.97
2016-11-12T10:21:42.333Z,86.49
2016-11-12T10:22:42.449Z,85.63
2016-11-12T10:23:42.442Z,85.82
2016-11-12T10:24:42.488Z,85.82
2016-11-12T10:25:42.531Z,86.35
2016-11-12T10:26:43.154Z,86.83
2016-11-12T10:27:42.647Z,86.83
2016-11-12T10:28:43.239Z,87.12
2016-11-12T10:29:43.289Z,85.58
2016-11-12T10:30:42.789Z,86.07
2016-11-12T10:31:42.830Z,86.16
2016-11-12T10:32:42.867Z,87.32
2016-11-12T10:33:42.918Z,86.26
2016-11-12T10:34:43.000Z,86.99
2016-11-12T10:35:43.159Z,87.18
2016-11-12T10:36:43.096Z,85.68
2016-11-12T10:37:43.134Z,86.83
2016-11-12T10:38:43.178Z,87.37
2016-11-12T10:39:43.255Z,88.53
2016-11-12T10:40:43.396Z,87.46
2016-11-12T10:41:43.427Z,86.83
2016-11-12T10:42:43.391Z,87.41
2016-11-12T10:43:43.447Z,86.74
2016-11-12T10:44:43.500Z,87.03
2016-11-12T10:45:43.520Z,87.03
2016-11-12T10:46:44.119Z,86.93
2016-11-12T10:47:43.628Z,85.87
2016-11-12T10:48:43.687Z,85.82
2016-11-12T10:49:43.737Z,86.78
2016-11-12T10:50:44.332Z,86.65
2016-11-12T10:51:44.356Z,86.69
2016-11-12T10:52:43.916Z,85.91
2016-11-12T10:53:43.949Z,85.72
2016-11-12T10:54:44.094Z,84.76
2016-11-12T10:55:44.595Z,86.11
2016-11-12T10:56:44.183Z,85.63
2016-11-12T10:57:44.165Z,84.61
2016-11-12T10:58:44.218Z,84.38
2016-11-12T10:59:44.256Z,83.8
2016-11-12T11:00:44.839Z,84.66
2016-11-12T11:01:44.932Z,85.53
2016-11-12T11:02:44.938Z,85.68
2016-11-12T11:03:44.736Z,86.49
2016-11-12T11:04:45.015Z,85.53
2016-11-12T11:05:44.591Z,83.99
2016-11-12T11:06:44.622Z,84.53
2016-11-12T11:07:44.686Z,85.68
2016-11-12T11:08:44.751Z,85.43
2016-11-12T11:09:44.808Z,84.86
2016-11-12T11:10:44.823Z,85.53
2016-11-12T11:11:44.958Z,85.91
2016-11-12T11:12:44.938Z,85.72
2016-11-12T11:13:45.516Z,86.11
2016-11-12T11:14:44.996Z,85.63
2016-11-12T11:15:45.128Z,85.91
2016-11-12T11:16:45.236Z,86.59
2016-11-12T11:17:45.275Z,86.78
2016-11-12T11:18:45.747Z,85.53
2016-11-12T11:19:45.898Z,86.83
2016-11-12T11:20:45.326Z,87.41
2016-11-12T11:21:45.803Z,87.7
2016-11-12T11:22:45.418Z,87.03
2016-11-12T11:23:45.496Z,87.41
2016-11-12T11:24:45.549Z,86.74
2016-11-12T11:25:46.069Z,87.51
2016-11-12T11:26:46.752Z,87.51
2016-11-12T11:27:45.691Z,87.6
2016-11-12T11:28:45.738Z,88.09
2016-11-12T11:29:45.760Z,88.18
2016-11-12T11:30:45.821Z,87.51
2016-11-12T11:31:46.422Z,87.36
2016-11-12T11:32:45.988Z,87.41
2016-11-12T11:33:46.755Z,87.51
2016-11-12T11:34:46.107Z,87.41
2016-11-12T11:35:46.069Z,88.09
2016-11-12T11:36:46.235Z,87.9
2016-11-12T11:37:46.188Z,87.51
2016-11-12T11:38:46.269Z,87.9
2016-11-12T11:39:46.270Z,88.04
2016-11-12T11:40:46.332Z,87.7
2016-11-12T11:41:46.918Z,87.26
2016-11-12T11:43:12.077Z,87.32
2016-11-12T11:43:46.438Z,86.69
2016-11-12T11:44:47.032Z,86.93
2016-11-12T11:45:46.576Z,87.51
2016-11-12T11:46:46.625Z,87.8
2016-11-12T11:47:46.654Z,88.09
2016-11-12T11:48:46.693Z,88.09
2016-11-12T11:49:46.748Z,87.03
2016-11-12T11:50:46.817Z,87.9
2016-11-12T11:51:46.871Z,87.12
2016-11-12T11:52:46.912Z,87.41
2016-11-12T11:53:46.962Z,88.09
2016-11-12T11:54:47.047Z,87.8
2016-11-12T11:55:47.089Z,87.99
2016-11-12T11:56:47.654Z,88.18
2016-11-12T11:57:47.177Z,87.12
2016-11-12T11:58:47.211Z,88.38
2016-11-12T11:59:47.255Z,87.32
2016-11-12T12:00:47.313Z,88.95
2016-11-12T12:01:47.368Z,87.99
2016-11-12T12:02:47.651Z,87.9
2016-11-12T12:03:47.983Z,86.74
2016-11-12T12:04:47.543Z,87.32
2016-11-12T12:05:47.596Z,88.04
2016-11-12T12:06:47.665Z,88.71
2016-11-12T12:07:47.795Z,88.81
2016-11-12T12:08:47.744Z,88.18
2016-11-12T12:09:47.793Z,87.51
2016-11-12T12:10:47.829Z,87.99
2016-11-12T12:11:47.890Z,88.38
2016-11-12T12:12:48.044Z,87.6
2016-11-12T12:13:47.965Z,87.32
2016-11-12T12:14:48.010Z,87.41
2016-11-12T12:15:48.072Z,87.7
2016-11-12T12:16:48.136Z,88.28
2016-11-12T12:17:48.163Z,88.38
2016-11-12T12:18:48.225Z,88.85
2016-11-12T12:19:48.302Z,88.57
2016-11-12T12:20:48.356Z,87.9
2016-11-12T12:21:48.411Z,87.51
2016-11-12T12:22:48.448Z,87.32
2016-11-12T12:23:48.477Z,87.51
2016-11-12T12:24:48.536Z,87.51
2016-11-12T12:25:48.609Z,86.26
2016-11-12T12:26:48.646Z,85.68
2016-11-12T12:27:48.693Z,86.16
2016-11-12T12:28:49.256Z,85.68
2016-11-12T12:29:48.816Z,86.55
2016-11-12T12:30:48.842Z,86.07
2016-11-12T12:31:48.900Z,86.51
2016-11-12T12:32:48.950Z,85.97
2016-11-12T12:33:48.966Z,85.78
2016-11-12T12:34:49.052Z,85.78
2016-11-12T12:35:49.071Z,86.45
2016-11-12T12:36:49.165Z,85.68
2016-11-12T12:37:49.170Z,83.95
2016-11-12T12:38:49.239Z,84.23
2016-11-12T12:39:49.290Z,83.47
2016-11-12T12:40:49.328Z,83.47
2016-11-12T12:41:49.378Z,84.23
2016-11-12T12:42:49.489Z,84.62
2016-11-12T12:43:49.606Z,84.23
2016-11-12T12:44:50.079Z,84.81
2016-11-12T12:45:49.576Z,83.37
2016-11-12T12:46:49.655Z,82.89
2016-11-12T12:47:49.696Z,82.79
2016-11-12T12:48:49.939Z,83.61
2016-11-12T12:49:50.326Z,81.58
2016-11-12T12:50:49.831Z,82.16
2016-11-12T12:51:49.912Z,83.31
2016-11-12T12:52:49.965Z,82.93
2016-11-12T12:53:49.985Z,83.66
2016-11-12T12:54:50.065Z,83.7
2016-11-12T12:55:50.086Z,83.61
2016-11-12T12:56:50.169Z,83.47
2016-11-12T12:57:50.221Z,85
2016-11-12T12:58:50.254Z,85.49
2016-11-12T12:59:50.303Z,84.66
2016-11-12T13:00:50.344Z,83.61
2016-11-12T13:01:50.377Z,83.99
2016-11-12T13:02:50.457Z,85.05
2016-11-12T13:03:50.533Z,85.53
2016-11-12T13:04:50.569Z,85.53
2016-11-12T13:05:50.591Z,84.86
2016-11-12T13:06:50.664Z,83.7
2016-11-12T13:07:50.737Z,84.38
2016-11-12T13:08:50.763Z,84.38
2016-11-12T13:09:50.805Z,83.41
2016-11-12T13:10:50.874Z,83.41
2016-11-12T13:11:50.893Z,84.33
2016-11-12T13:12:50.967Z,84.33
2016-11-12T13:13:51.021Z,83.66
2016-11-12T13:14:51.167Z,84.33
2016-11-12T13:15:51.118Z,83.56
2016-11-12T13:16:51.155Z,83.47
2016-11-12T13:17:51.226Z,83.95
2016-11-12T13:18:51.273Z,83.37
2016-11-12T13:19:51.441Z,83.75
2016-11-12T13:20:51.342Z,83.08
2016-11-12T13:21:51.432Z,83.75
2016-11-12T13:22:52.018Z,83.37
2016-11-12T13:23:51.511Z,83.37
2016-11-12T13:24:51.548Z,82.21
2016-11-12T13:25:52.187Z,82.98
2016-11-12T13:26:51.669Z,82.7
2016-11-12T13:27:51.743Z,82.65
2016-11-12T13:28:51.789Z,83.14
2016-11-12T13:29:51.809Z,83.08
2016-11-12T13:30:51.900Z,82.5
2016-11-12T13:31:51.946Z,83.08
2016-11-12T13:32:51.986Z,83.56
2016-11-12T13:33:52.050Z,83.08
2016-11-12T13:34:52.089Z,83.18
2016-11-12T13:35:52.303Z,82.98
2016-11-12T13:36:52.169Z,82.5
2016-11-12T13:37:52.245Z,82.21
2016-11-12T13:38:52.266Z,83.28
2016-11-12T13:39:52.344Z,83.52
2016-11-12T13:40:52.376Z,82.94
2016-11-12T13:41:52.437Z,81.7
2016-11-12T13:42:52.465Z,82.94
2016-11-12T13:43:52.540Z,81.7
2016-11-12T13:44:52.572Z,81.83
2016-11-12T13:45:52.620Z,81.3
2016-11-12T13:46:52.674Z,81.3
2016-11-12T13:47:52.756Z,82.17
2016-11-12T13:48:52.784Z,82.12
2016-11-12T13:49:52.852Z,82.7
2016-11-12T13:50:53.033Z,80.77
2016-11-12T13:51:52.930Z,81.7
2016-11-12T13:52:53.007Z,81.7
2016-11-12T13:53:53.069Z,82.31
2016-11-12T13:54:53.071Z,82.17
2016-11-12T13:55:53.210Z,81.16
2016-11-12T13:56:53.197Z,81.35
2016-11-12T13:57:53.226Z,81.5
2016-11-12T13:58:53.274Z,80.48
2016-11-12T13:59:53.334Z,81.45
2016-11-12T14:00:53.387Z,81.25
2016-11-12T14:01:53.415Z,81.25
2016-11-12T14:02:53.492Z,80.58
2016-11-12T14:03:53.541Z,80
2016-11-12T14:04:53.592Z,81.25
2016-11-12T14:05:53.640Z,80.77
2016-11-12T14:06:53.678Z,81.79
2016-11-12T14:07:53.738Z,81.12
2016-11-12T14:08:53.791Z,81.7
2016-11-12T14:09:53.852Z,81.12
2016-11-12T14:10:53.913Z,81.21
2016-11-12T14:11:53.960Z,81.4
2016-11-12T14:12:53.984Z,81.54
2016-11-12T14:13:54.051Z,81.25
2016-11-12T14:14:54.108Z,80.77
2016-11-12T14:15:54.159Z,80.77
2016-11-12T14:16:54.280Z,79.46
2016-11-12T14:17:54.244Z,79.94
2016-11-12T14:18:54.337Z,80.81
2016-11-12T14:19:54.365Z,79.61
2016-11-12T14:20:54.391Z,79.9
2016-11-12T14:21:54.528Z,78.69
2016-11-12T14:22:54.487Z,79.36
2016-11-12T14:23:54.545Z,78.94
2016-11-12T14:24:54.594Z,78.85
2016-11-12T14:25:54.695Z,78.88
2016-11-12T14:26:55.215Z,78.5
2016-11-12T14:27:54.767Z,78.21
2016-11-12T14:28:54.805Z,77.69
2016-11-12T14:29:54.864Z,78.65
2016-11-12T14:30:54.917Z,78.46
2016-11-12T14:31:54.958Z,78.85
2016-11-12T14:32:55.004Z,79.23
2016-11-12T14:33:55.581Z,77.73
2016-11-12T14:34:55.125Z,78.5
2016-11-12T14:35:55.168Z,77.34
2016-11-12T14:36:55.200Z,78.79
2016-11-12T14:37:55.776Z,78.17
2016-11-12T14:38:55.289Z,78.27
2016-11-12T14:39:55.388Z,78.4
2016-11-12T14:40:55.401Z,78.88
2016-11-12T14:41:55.458Z,77.73
2016-11-12T14:42:55.733Z,77.92
2016-11-12T14:43:55.556Z,78.31
2016-11-12T14:44:55.635Z,77.73
2016-11-12T14:45:55.796Z,77.25
2016-11-12T14:46:55.740Z,76.96
2016-11-12T14:47:55.959Z,76.86
2016-11-12T14:48:55.817Z,77.25
2016-11-12T14:49:56.393Z,77.73
2016-11-12T14:50:55.918Z,78.46
2016-11-12T14:51:55.998Z,77.63
2016-11-12T14:52:56.707Z,77.73
2016-11-12T14:53:56.066Z,77.63
2016-11-12T14:54:56.121Z,77.53
2016-11-12T14:55:56.189Z,78.59
2016-11-12T14:56:56.202Z,78.5
2016-11-12T14:57:56.266Z,78.79
2016-11-12T14:58:56.332Z,78.31
2016-11-12T14:59:56.365Z,78.59
2016-11-12T15:00:56.465Z,77.53
2016-11-12T15:01:56.970Z,78.73
2016-11-12T15:02:56.562Z,78.54
2016-11-12T15:03:56.587Z,77.48
2016-11-12T15:04:57.175Z,78.63
2016-11-12T15:05:56.709Z,78.83
2016-11-12T15:06:56.734Z,81.14
2016-11-12T15:07:56.780Z,81.2
2016-11-12T15:08:56.832Z,80.66
2016-11-12T15:09:56.895Z,81.48
2016-11-12T15:10:56.947Z,79.6
2016-11-12T15:11:56.963Z,79.85
2016-11-12T15:12:57.021Z,79.27
2016-11-12T15:13:57.095Z,80.14
2016-11-12T15:14:57.170Z,80.81
2016-11-12T15:15:57.199Z,79.36
2016-11-12T15:16:57.222Z,79.08
2016-11-12T15:17:57.286Z,78.79
2016-11-12T15:18:57.573Z,79.94
2016-11-12T15:19:57.397Z,79.17
2016-11-12T15:20:57.437Z,79.46
2016-11-12T15:21:57.502Z,79.08
2016-11-12T15:22:57.552Z,79.56
2016-11-12T15:23:57.736Z,78.31
2016-11-12T15:24:57.674Z,77.63
2016-11-12T15:25:57.703Z,78.5
2016-11-12T15:26:57.772Z,77.63
2016-11-12T15:27:57.799Z,76.09
2016-11-12T15:28:57.858Z,77.34
2016-11-12T15:29:57.885Z,77.44
2016-11-12T15:30:57.986Z,76.18
2016-11-12T15:31:57.991Z,77.44
2016-11-12T15:32:58.034Z,77.31
2016-11-12T15:33:58.120Z,78.46
2016-11-12T15:34:58.134Z,77.59
2016-11-12T15:35:58.214Z,78.27
2016-11-12T15:36:58.262Z,77.69
2016-11-12T15:37:58.319Z,78.21
2016-11-12T15:38:58.365Z,78.36
2016-11-12T15:39:58.406Z,78.5
2016-11-12T15:40:58.470Z,77.83
2016-11-12T15:41:58.514Z,77.25
2016-11-12T15:42:58.536Z,77.53
2016-11-12T15:43:58.613Z,77.44
2016-11-12T15:44:58.677Z,77.44
2016-11-12T15:45:58.700Z,77.06
2016-11-12T15:46:58.759Z,77.44
2016-11-12T15:47:58.830Z,76.67
2016-11-12T15:48:58.850Z,76.42
2016-11-12T15:49:59.012Z,77.28
2016-11-12T15:50:58.979Z,76.42
2016-11-12T15:51:59.015Z,76.51
2016-11-12T15:52:59.088Z,77.09
2016-11-12T15:53:59.137Z,77.25
2016-11-12T15:54:59.311Z,76.51
2016-11-12T15:55:59.239Z,76.23
2016-11-12T15:56:59.295Z,76.9
2016-11-12T15:57:59.313Z,77.28
2016-11-12T15:58:59.915Z,77.28
2016-11-12T15:59:59.410Z,76.23
2016-11-12T16:00:59.456Z,77
2016-11-12T16:01:59.554Z,76.9
2016-11-12T16:02:59.580Z,76.18
2016-11-12T16:03:59.652Z,76.28
2016-11-12T16:04:59.710Z,76.09
2016-11-12T16:05:59.720Z,75.42
2016-11-12T16:06:59.810Z,75.9
2016-11-12T16:07:59.857Z,75.99
2016-11-12T16:08:59.931Z,76.09
2016-11-12T16:09:59.943Z,75.61
2016-11-12T16:11:00.016Z,74.84
2016-11-12T16:12:00.081Z,74.49
2016-11-12T16:13:00.092Z,74.88
2016-11-12T16:14:00.132Z,74.4
2016-11-12T16:15:00.215Z,74.68
2016-11-12T16:16:00.224Z,75.16
2016-11-12T16:17:00.287Z,74.88
2016-11-12T16:18:00.332Z,74.88
2016-11-12T16:19:00.437Z,75.32
2016-11-12T16:20:00.468Z,74.84
2016-11-12T16:21:00.576Z,75.26
2016-11-12T16:22:00.556Z,75.16
2016-11-12T16:23:00.590Z,74.84
2016-11-12T16:24:00.653Z,74.4
2016-11-12T16:25:00.704Z,74.97
2016-11-12T16:26:00.956Z,74.58
2016-11-12T16:27:00.800Z,73.53
2016-11-12T16:28:00.852Z,73.49
2016-11-12T16:29:00.912Z,73.72
2016-11-12T16:30:00.969Z,74.58
2016-11-12T16:31:01.014Z,74.49
2016-11-12T16:32:01.049Z,74.01
2016-11-12T16:33:01.097Z,74.2
2016-11-12T16:34:01.181Z,74.07
2016-11-12T16:35:01.187Z,73.72
2016-11-12T16:36:01.248Z,74.55
2016-11-12T16:37:01.325Z,74.65
2016-11-12T16:38:01.375Z,74.74
2016-11-12T16:39:01.428Z,74.65
2016-11-12T16:40:01.460Z,74.36
2016-11-12T16:41:01.534Z,73.72
2016-11-12T16:42:01.573Z,74.84
2016-11-12T16:43:01.652Z,74.74
2016-11-12T16:44:01.671Z,74.74
2016-11-12T16:45:01.740Z,74.78
2016-11-12T16:46:01.773Z,74.78
2016-11-12T16:47:01.935Z,74.26
2016-11-12T16:48:01.848Z,74.84
2016-11-12T16:49:01.947Z,75.07
2016-11-12T16:50:01.963Z,74.58
2016-11-12T16:51:02.050Z,74.58
2016-11-12T16:52:02.261Z,73.72
2016-11-12T16:53:02.154Z,73.14
2016-11-12T16:54:02.186Z,73.91
2016-11-12T16:55:02.237Z,73.82
2016-11-12T16:56:02.281Z,74.01
2016-11-12T16:57:02.354Z,73.91
2016-11-12T16:58:02.369Z,73.91
2016-11-12T16:59:02.458Z,74.1
2016-11-12T17:00:02.508Z,73.72
2016-11-12T17:01:02.552Z,73.82
2016-11-12T17:02:02.609Z,73.43
2016-11-12T17:03:02.661Z,73.43
2016-11-12T17:04:02.669Z,73.24
2016-11-12T17:05:02.751Z,73.33
2016-11-12T17:06:02.764Z,72.66
2016-11-12T17:07:02.867Z,73.14
2016-11-12T17:08:02.882Z,73.24
2016-11-12T17:09:02.916Z,73.33
2016-11-12T17:10:02.996Z,73.33
2016-11-12T17:11:03.037Z,73.33
2016-11-12T17:12:03.095Z,73.72
2016-11-12T17:13:03.225Z,73.43
2016-11-12T17:14:03.198Z,73.14
2016-11-12T17:15:03.271Z,73.43
2016-11-12T17:16:03.818Z,73.82
2016-11-12T17:17:03.321Z,74.1